sensor_id;sensor_type;location;lat;lon;timestamp;P1;durP1;ratioP1;P2;durP2;ratioP2
50337;SDS011;46221;51.178;5.900;2023-08-20T00:01:21;4.60;;;3.13;;
50337;SDS011;46221;51.178;5.900;2023-08-20T00:03:48;4.95;;;3.25;;
50337;SDS011;46221;51.178;5.900;2023-08-20T00:06:15;6.80;;;3.47;;
50337;SDS011;46221;51.178;5.900;2023-08-20T00:08:41;5.00;;;3.08;;
50337;SDS011;46221;51.178;5.900;2023-08-20T00:11:08;4.88;;;3.00;;
50337;SDS011;46221;51.178;5.900;2023-08-20T00:13:34;4.95;;;3.05;;
50337;SDS011;46221;51.178;5.900;2023-08-20T00:16:01;5.57;;;3.20;;
50337;SDS011;46221;51.178;5.900;2023-08-20T00:18:28;5.72;;;3.55;;
50337;SDS011;46221;51.178;5.900;2023-08-20T00:20:54;5.13;;;3.33;;
50337;SDS011;46221;51.178;5.900;2023-08-20T00:23:21;4.68;;;3.17;;
50337;SDS011;46221;51.178;5.900;2023-08-20T00:25:48;4.68;;;3.03;;
50337;SDS011;46221;51.178;5.900;2023-08-20T00:28:14;4.35;;;3.03;;
50337;SDS011;46221;51.178;5.900;2023-08-20T00:30:40;4.97;;;2.90;;
50337;SDS011;46221;51.178;5.900;2023-08-20T00:33:07;4.65;;;3.08;;
50337;SDS011;46221;51.178;5.900;2023-08-20T00:35:33;3.85;;;2.97;;
50337;SDS011;46221;51.178;5.900;2023-08-20T00:37:59;4.65;;;3.20;;
50337;SDS011;46221;51.178;5.900;2023-08-20T00:40:26;4.78;;;3.25;;
50337;SDS011;46221;51.178;5.900;2023-08-20T00:42:52;5.40;;;3.35;;
50337;SDS011;46221;51.178;5.900;2023-08-20T00:45:19;4.03;;;3.15;;
50337;SDS011;46221;51.178;5.900;2023-08-20T00:47:45;5.53;;;3.33;;
50337;SDS011;46221;51.178;5.900;2023-08-20T00:50:11;5.10;;;3.00;;
50337;SDS011;46221;51.178;5.900;2023-08-20T00:52:38;3.95;;;3.15;;
50337;SDS011;46221;51.178;5.900;2023-08-20T00:55:06;4.85;;;2.97;;
50337;SDS011;46221;51.178;5.900;2023-08-20T00:57:34;5.15;;;3.38;;
50337;SDS011;46221;51.178;5.900;2023-08-20T01:00:01;5.20;;;3.45;;
50337;SDS011;46221;51.178;5.900;2023-08-20T01:02:32;4.10;;;3.05;;
50337;SDS011;46221;51.178;5.900;2023-08-20T01:04:59;5.05;;;3.00;;
50337;SDS011;46221;51.178;5.900;2023-08-20T01:12:31;4.95;;;3.22;;
50337;SDS011;46221;51.178;5.900;2023-08-20T01:14:57;6.03;;;3.95;;
50337;SDS011;46221;51.178;5.900;2023-08-20T01:17:24;5.38;;;3.55;;
50337;SDS011;46221;51.178;5.900;2023-08-20T01:19:51;5.32;;;3.40;;
50337;SDS011;46221;51.178;5.900;2023-08-20T01:22:40;4.80;;;3.30;;
50337;SDS011;46221;51.178;5.900;2023-08-20T01:30:03;4.50;;;2.97;;
50337;SDS011;46221;51.178;5.900;2023-08-20T01:32:30;4.43;;;3.30;;
50337;SDS011;46221;51.178;5.900;2023-08-20T01:34:57;4.20;;;2.75;;
50337;SDS011;46221;51.178;5.900;2023-08-20T01:37:23;4.75;;;3.08;;
50337;SDS011;46221;51.178;5.900;2023-08-20T01:39:49;3.70;;;3.00;;
50337;SDS011;46221;51.178;5.900;2023-08-20T01:42:16;4.82;;;3.53;;
50337;SDS011;46221;51.178;5.900;2023-08-20T01:44:42;4.18;;;2.90;;
50337;SDS011;46221;51.178;5.900;2023-08-20T01:47:08;4.70;;;3.13;;
50337;SDS011;46221;51.178;5.900;2023-08-20T01:49:35;3.90;;;2.78;;
50337;SDS011;46221;51.178;5.900;2023-08-20T01:52:01;3.75;;;2.92;;
50337;SDS011;46221;51.178;5.900;2023-08-20T01:54:28;4.78;;;3.17;;
50337;SDS011;46221;51.178;5.900;2023-08-20T01:56:55;3.88;;;3.00;;
50337;SDS011;46221;51.178;5.900;2023-08-20T01:59:22;6.57;;;3.45;;
50337;SDS011;46221;51.178;5.900;2023-08-20T02:01:48;4.38;;;3.28;;
50337;SDS011;46221;51.178;5.900;2023-08-20T02:04:15;6.30;;;3.42;;
50337;SDS011;46221;51.178;5.900;2023-08-20T02:06:41;7.45;;;3.35;;
50337;SDS011;46221;51.178;5.900;2023-08-20T02:09:08;5.53;;;3.30;;
50337;SDS011;46221;51.178;5.900;2023-08-20T02:11:34;5.97;;;3.67;;
50337;SDS011;46221;51.178;5.900;2023-08-20T02:14:02;6.00;;;4.00;;
50337;SDS011;46221;51.178;5.900;2023-08-20T02:16:28;5.80;;;3.75;;
50337;SDS011;46221;51.178;5.900;2023-08-20T02:18:55;6.82;;;4.30;;
50337;SDS011;46221;51.178;5.900;2023-08-20T02:21:21;5.70;;;3.67;;
50337;SDS011;46221;51.178;5.900;2023-08-20T02:23:48;5.32;;;3.63;;
50337;SDS011;46221;51.178;5.900;2023-08-20T02:26:15;5.22;;;3.40;;
50337;SDS011;46221;51.178;5.900;2023-08-20T02:28:41;5.72;;;3.53;;
50337;SDS011;46221;51.178;5.900;2023-08-20T02:31:07;6.05;;;3.83;;
50337;SDS011;46221;51.178;5.900;2023-08-20T02:33:34;6.97;;;3.72;;
50337;SDS011;46221;51.178;5.900;2023-08-20T02:36:01;6.32;;;3.33;;
50337;SDS011;46221;51.178;5.900;2023-08-20T02:38:27;5.70;;;3.42;;
50337;SDS011;46221;51.178;5.900;2023-08-20T02:40:54;4.65;;;3.00;;
50337;SDS011;46221;51.178;5.900;2023-08-20T02:43:20;4.93;;;3.20;;
50337;SDS011;46221;51.178;5.900;2023-08-20T02:45:46;4.97;;;3.10;;
50337;SDS011;46221;51.178;5.900;2023-08-20T02:48:14;4.97;;;3.35;;
50337;SDS011;46221;51.178;5.900;2023-08-20T02:50:40;6.22;;;3.42;;
50337;SDS011;46221;51.178;5.900;2023-08-20T02:53:07;5.35;;;3.05;;
50337;SDS011;46221;51.178;5.900;2023-08-20T02:55:33;5.50;;;3.30;;
50337;SDS011;46221;51.178;5.900;2023-08-20T02:58:00;4.93;;;3.10;;
50337;SDS011;46221;51.178;5.900;2023-08-20T03:00:26;6.88;;;3.30;;
50337;SDS011;46221;51.178;5.900;2023-08-20T03:02:52;4.15;;;2.80;;
50337;SDS011;46221;51.178;5.900;2023-08-20T03:05:19;4.70;;;3.00;;
50337;SDS011;46221;51.178;5.900;2023-08-20T03:07:45;5.10;;;3.28;;
50337;SDS011;46221;51.178;5.900;2023-08-20T03:10:12;4.65;;;2.80;;
50337;SDS011;46221;51.178;5.900;2023-08-20T03:12:38;5.72;;;3.40;;
50337;SDS011;46221;51.178;5.900;2023-08-20T03:15:05;5.45;;;3.00;;
50337;SDS011;46221;51.178;5.900;2023-08-20T03:17:31;5.75;;;3.40;;
50337;SDS011;46221;51.178;5.900;2023-08-20T03:19:58;5.53;;;2.90;;
50337;SDS011;46221;51.178;5.900;2023-08-20T03:22:25;6.18;;;3.03;;
50337;SDS011;46221;51.178;5.900;2023-08-20T03:24:52;4.85;;;2.95;;
50337;SDS011;46221;51.178;5.900;2023-08-20T03:27:19;4.50;;;2.70;;
50337;SDS011;46221;51.178;5.900;2023-08-20T03:29:45;5.22;;;3.25;;
50337;SDS011;46221;51.178;5.900;2023-08-20T03:32:12;4.40;;;2.85;;
50337;SDS011;46221;51.178;5.900;2023-08-20T03:34:38;5.45;;;3.08;;
50337;SDS011;46221;51.178;5.900;2023-08-20T03:37:05;4.25;;;2.95;;
50337;SDS011;46221;51.178;5.900;2023-08-20T03:39:31;4.60;;;2.80;;
50337;SDS011;46221;51.178;5.900;2023-08-20T03:41:57;5.60;;;3.22;;
50337;SDS011;46221;51.178;5.900;2023-08-20T03:44:24;4.25;;;2.95;;
50337;SDS011;46221;51.178;5.900;2023-08-20T03:46:50;4.60;;;2.65;;
50337;SDS011;46221;51.178;5.900;2023-08-20T03:49:16;4.82;;;2.53;;
50337;SDS011;46221;51.178;5.900;2023-08-20T03:51:43;4.85;;;2.80;;
50337;SDS011;46221;51.178;5.900;2023-08-20T03:54:09;3.58;;;2.42;;
50337;SDS011;46221;51.178;5.900;2023-08-20T03:56:36;5.13;;;3.08;;
50337;SDS011;46221;51.178;5.900;2023-08-20T03:59:02;5.97;;;2.75;;
50337;SDS011;46221;51.178;5.900;2023-08-20T04:01:28;5.18;;;2.80;;
50337;SDS011;46221;51.178;5.900;2023-08-20T04:03:55;4.25;;;2.75;;
50337;SDS011;46221;51.178;5.900;2023-08-20T04:06:21;4.65;;;2.53;;
50337;SDS011;46221;51.178;5.900;2023-08-20T04:08:48;4.68;;;2.78;;
50337;SDS011;46221;51.178;5.900;2023-08-20T04:11:15;4.28;;;2.45;;
50337;SDS011;46221;51.178;5.900;2023-08-20T04:13:41;4.57;;;2.38;;
50337;SDS011;46221;51.178;5.900;2023-08-20T04:16:09;4.07;;;2.50;;
50337;SDS011;46221;51.178;5.900;2023-08-20T04:18:36;4.75;;;2.65;;
50337;SDS011;46221;51.178;5.900;2023-08-20T04:21:02;4.25;;;2.63;;
50337;SDS011;46221;51.178;5.900;2023-08-20T04:23:29;4.78;;;2.63;;
50337;SDS011;46221;51.178;5.900;2023-08-20T04:25:55;4.18;;;2.60;;
50337;SDS011;46221;51.178;5.900;2023-08-20T04:28:21;5.22;;;2.78;;
50337;SDS011;46221;51.178;5.900;2023-08-20T04:30:48;4.80;;;2.85;;
50337;SDS011;46221;51.178;5.900;2023-08-20T04:33:15;4.35;;;2.55;;
50337;SDS011;46221;51.178;5.900;2023-08-20T04:35:41;4.35;;;2.35;;
50337;SDS011;46221;51.178;5.900;2023-08-20T04:38:08;4.75;;;2.75;;
50337;SDS011;46221;51.178;5.900;2023-08-20T04:40:34;4.93;;;2.38;;
50337;SDS011;46221;51.178;5.900;2023-08-20T04:43:00;4.40;;;1.98;;
50337;SDS011;46221;51.178;5.900;2023-08-20T04:45:27;3.63;;;2.25;;
50337;SDS011;46221;51.178;5.900;2023-08-20T04:47:53;5.75;;;2.63;;
50337;SDS011;46221;51.178;5.900;2023-08-20T04:50:20;4.82;;;2.55;;
50337;SDS011;46221;51.178;5.900;2023-08-20T04:52:47;3.78;;;2.50;;
50337;SDS011;46221;51.178;5.900;2023-08-20T04:55:13;4.90;;;2.78;;
50337;SDS011;46221;51.178;5.900;2023-08-20T04:57:41;5.35;;;2.58;;
50337;SDS011;46221;51.178;5.900;2023-08-20T05:00:08;3.33;;;2.50;;
50337;SDS011;46221;51.178;5.900;2023-08-20T05:02:36;3.70;;;2.10;;
50337;SDS011;46221;51.178;5.900;2023-08-20T05:05:03;4.25;;;2.55;;
50337;SDS011;46221;51.178;5.900;2023-08-20T05:07:29;4.57;;;2.47;;
50337;SDS011;46221;51.178;5.900;2023-08-20T05:09:55;3.88;;;2.20;;
50337;SDS011;46221;51.178;5.900;2023-08-20T05:12:22;3.95;;;2.20;;
50337;SDS011;46221;51.178;5.900;2023-08-20T05:14:48;3.78;;;2.40;;
50337;SDS011;46221;51.178;5.900;2023-08-20T05:17:14;4.20;;;2.30;;
50337;SDS011;46221;51.178;5.900;2023-08-20T05:19:41;4.43;;;2.53;;
50337;SDS011;46221;51.178;5.900;2023-08-20T05:22:07;5.03;;;2.20;;
50337;SDS011;46221;51.178;5.900;2023-08-20T05:24:33;4.00;;;2.20;;
50337;SDS011;46221;51.178;5.900;2023-08-20T05:27:03;3.65;;;2.17;;
50337;SDS011;46221;51.178;5.900;2023-08-20T05:29:30;4.03;;;2.20;;
50337;SDS011;46221;51.178;5.900;2023-08-20T05:31:56;4.30;;;2.15;;
50337;SDS011;46221;51.178;5.900;2023-08-20T05:34:23;4.07;;;2.20;;
50337;SDS011;46221;51.178;5.900;2023-08-20T05:36:49;5.60;;;2.75;;
50337;SDS011;46221;51.178;5.900;2023-08-20T05:39:16;6.78;;;2.55;;
50337;SDS011;46221;51.178;5.900;2023-08-20T05:41:42;3.90;;;2.25;;
50337;SDS011;46221;51.178;5.900;2023-08-20T05:44:09;3.92;;;2.28;;
50337;SDS011;46221;51.178;5.900;2023-08-20T05:46:36;3.33;;;2.38;;
50337;SDS011;46221;51.178;5.900;2023-08-20T05:49:02;4.88;;;2.85;;
50337;SDS011;46221;51.178;5.900;2023-08-20T05:51:29;6.30;;;3.10;;
50337;SDS011;46221;51.178;5.900;2023-08-20T05:53:55;6.68;;;3.50;;
50337;SDS011;46221;51.178;5.900;2023-08-20T05:56:21;6.47;;;3.45;;
50337;SDS011;46221;51.178;5.900;2023-08-20T05:58:48;5.88;;;3.60;;
50337;SDS011;46221;51.178;5.900;2023-08-20T06:01:14;8.73;;;4.13;;
50337;SDS011;46221;51.178;5.900;2023-08-20T06:03:40;5.28;;;3.38;;
50337;SDS011;46221;51.178;5.900;2023-08-20T06:06:07;5.53;;;3.65;;
50337;SDS011;46221;51.178;5.900;2023-08-20T06:08:34;6.28;;;3.70;;
50337;SDS011;46221;51.178;5.900;2023-08-20T06:11:01;6.57;;;3.83;;
50337;SDS011;46221;51.178;5.900;2023-08-20T06:13:27;6.15;;;3.90;;
50337;SDS011;46221;51.178;5.900;2023-08-20T06:15:53;8.88;;;4.55;;
50337;SDS011;46221;51.178;5.900;2023-08-20T06:18:20;6.50;;;3.80;;
50337;SDS011;46221;51.178;5.900;2023-08-20T06:20:46;6.25;;;3.50;;
50337;SDS011;46221;51.178;5.900;2023-08-20T06:23:12;5.63;;;3.83;;
50337;SDS011;46221;51.178;5.900;2023-08-20T06:25:52;7.65;;;4.78;;
50337;SDS011;46221;51.178;5.900;2023-08-20T06:28:19;6.47;;;3.97;;
50337;SDS011;46221;51.178;5.900;2023-08-20T06:30:45;7.93;;;3.95;;
50337;SDS011;46221;51.178;5.900;2023-08-20T06:33:12;8.90;;;4.38;;
50337;SDS011;46221;51.178;5.900;2023-08-20T06:35:38;9.15;;;4.45;;
50337;SDS011;46221;51.178;5.900;2023-08-20T06:38:05;6.28;;;4.22;;
50337;SDS011;46221;51.178;5.900;2023-08-20T06:40:32;8.82;;;4.18;;
50337;SDS011;46221;51.178;5.900;2023-08-20T06:42:58;7.65;;;4.53;;
50337;SDS011;46221;51.178;5.900;2023-08-20T06:45:25;7.78;;;4.20;;
50337;SDS011;46221;51.178;5.900;2023-08-20T06:47:51;8.98;;;4.65;;
50337;SDS011;46221;51.178;5.900;2023-08-20T06:50:17;8.23;;;4.55;;
50337;SDS011;46221;51.178;5.900;2023-08-20T06:52:44;9.50;;;5.10;;
50337;SDS011;46221;51.178;5.900;2023-08-20T06:55:10;7.35;;;4.88;;
50337;SDS011;46221;51.178;5.900;2023-08-20T06:57:36;6.72;;;4.35;;
50337;SDS011;46221;51.178;5.900;2023-08-20T07:00:03;10.35;;;4.65;;
50337;SDS011;46221;51.178;5.900;2023-08-20T07:02:32;10.45;;;4.32;;
50337;SDS011;46221;51.178;5.900;2023-08-20T07:04:59;8.73;;;4.22;;
50337;SDS011;46221;51.178;5.900;2023-08-20T07:07:25;7.93;;;4.40;;
50337;SDS011;46221;51.178;5.900;2023-08-20T07:09:52;9.77;;;4.20;;
50337;SDS011;46221;51.178;5.900;2023-08-20T07:12:18;11.57;;;5.05;;
50337;SDS011;46221;51.178;5.900;2023-08-20T07:14:44;9.48;;;5.35;;
50337;SDS011;46221;51.178;5.900;2023-08-20T07:17:11;15.05;;;5.53;;
50337;SDS011;46221;51.178;5.900;2023-08-20T07:19:37;9.35;;;5.65;;
50337;SDS011;46221;51.178;5.900;2023-08-20T07:22:04;9.82;;;5.15;;
50337;SDS011;46221;51.178;5.900;2023-08-20T07:24:30;8.23;;;5.63;;
50337;SDS011;46221;51.178;5.900;2023-08-20T07:27:01;9.07;;;5.78;;
50337;SDS011;46221;51.178;5.900;2023-08-20T07:29:29;8.95;;;5.72;;
50337;SDS011;46221;51.178;5.900;2023-08-20T07:31:56;8.07;;;5.70;;
50337;SDS011;46221;51.178;5.900;2023-08-20T07:34:23;9.20;;;6.40;;
50337;SDS011;46221;51.178;5.900;2023-08-20T07:36:49;11.18;;;5.85;;
50337;SDS011;46221;51.178;5.900;2023-08-20T07:39:15;10.90;;;5.78;;
50337;SDS011;46221;51.178;5.900;2023-08-20T07:41:44;8.23;;;6.32;;
50337;SDS011;46221;51.178;5.900;2023-08-20T07:44:10;10.32;;;5.85;;
50337;SDS011;46221;51.178;5.900;2023-08-20T07:46:36;9.15;;;6.40;;
50337;SDS011;46221;51.178;5.900;2023-08-20T07:49:03;14.45;;;6.88;;
50337;SDS011;46221;51.178;5.900;2023-08-20T07:51:29;9.90;;;5.80;;
50337;SDS011;46221;51.178;5.900;2023-08-20T07:53:56;10.18;;;6.05;;
50337;SDS011;46221;51.178;5.900;2023-08-20T07:56:24;9.70;;;6.03;;
50337;SDS011;46221;51.178;5.900;2023-08-20T07:58:50;13.57;;;6.55;;
50337;SDS011;46221;51.178;5.900;2023-08-20T08:01:17;8.70;;;5.65;;
50337;SDS011;46221;51.178;5.900;2023-08-20T08:03:43;9.75;;;5.95;;
50337;SDS011;46221;51.178;5.900;2023-08-20T08:06:10;9.05;;;5.32;;
50337;SDS011;46221;51.178;5.900;2023-08-20T08:08:42;11.35;;;5.53;;
50337;SDS011;46221;51.178;5.900;2023-08-20T08:11:09;8.93;;;6.07;;
50337;SDS011;46221;51.178;5.900;2023-08-20T08:13:35;11.70;;;6.53;;
50337;SDS011;46221;51.178;5.900;2023-08-20T08:16:02;10.20;;;6.32;;
50337;SDS011;46221;51.178;5.900;2023-08-20T08:18:28;9.00;;;6.00;;
50337;SDS011;46221;51.178;5.900;2023-08-20T08:20:54;8.65;;;6.10;;
50337;SDS011;46221;51.178;5.900;2023-08-20T08:23:21;9.00;;;6.38;;
50337;SDS011;46221;51.178;5.900;2023-08-20T08:25:47;11.02;;;6.70;;
50337;SDS011;46221;51.178;5.900;2023-08-20T08:28:13;8.73;;;5.93;;
50337;SDS011;46221;51.178;5.900;2023-08-20T08:30:40;10.45;;;5.72;;
50337;SDS011;46221;51.178;5.900;2023-08-20T08:33:08;10.73;;;5.55;;
50337;SDS011;46221;51.178;5.900;2023-08-20T08:35:34;9.55;;;5.88;;
50337;SDS011;46221;51.178;5.900;2023-08-20T08:38:01;11.65;;;5.90;;
50337;SDS011;46221;51.178;5.900;2023-08-20T08:40:29;9.57;;;4.88;;
50337;SDS011;46221;51.178;5.900;2023-08-20T08:42:56;9.43;;;5.20;;
50337;SDS011;46221;51.178;5.900;2023-08-20T08:45:23;7.45;;;4.88;;
50337;SDS011;46221;51.178;5.900;2023-08-20T08:47:49;8.90;;;5.55;;
50337;SDS011;46221;51.178;5.900;2023-08-20T08:50:17;10.45;;;6.15;;
50337;SDS011;46221;51.178;5.900;2023-08-20T08:52:44;10.35;;;5.68;;
50337;SDS011;46221;51.178;5.900;2023-08-20T08:55:11;9.60;;;5.95;;
50337;SDS011;46221;51.178;5.900;2023-08-20T08:57:37;11.95;;;6.18;;
50337;SDS011;46221;51.178;5.900;2023-08-20T09:00:04;11.32;;;6.82;;
50337;SDS011;46221;51.178;5.900;2023-08-20T09:02:32;10.20;;;7.30;;
50337;SDS011;46221;51.178;5.900;2023-08-20T09:04:59;10.75;;;6.45;;
50337;SDS011;46221;51.178;5.900;2023-08-20T09:07:25;11.30;;;7.53;;
50337;SDS011;46221;51.178;5.900;2023-08-20T09:09:56;9.73;;;7.10;;
50337;SDS011;46221;51.178;5.900;2023-08-20T09:12:23;12.38;;;7.90;;
50337;SDS011;46221;51.178;5.900;2023-08-20T09:14:50;9.80;;;7.00;;
50337;SDS011;46221;51.178;5.900;2023-08-20T09:17:16;13.50;;;8.40;;
50337;SDS011;46221;51.178;5.900;2023-08-20T09:19:44;12.40;;;8.68;;
50337;SDS011;46221;51.178;5.900;2023-08-20T09:22:14;12.13;;;8.45;;
50337;SDS011;46221;51.178;5.900;2023-08-20T09:24:44;10.38;;;7.85;;
50337;SDS011;46221;51.178;5.900;2023-08-20T09:27:11;16.92;;;9.30;;
50337;SDS011;46221;51.178;5.900;2023-08-20T09:29:44;12.40;;;8.13;;
50337;SDS011;46221;51.178;5.900;2023-08-20T09:32:15;10.40;;;7.22;;
50337;SDS011;46221;51.178;5.900;2023-08-20T09:34:41;11.30;;;6.72;;
50337;SDS011;46221;51.178;5.900;2023-08-20T09:37:14;11.63;;;6.72;;
50337;SDS011;46221;51.178;5.900;2023-08-20T09:39:41;11.80;;;6.65;;
50337;SDS011;46221;51.178;5.900;2023-08-20T09:42:09;10.65;;;6.57;;
50337;SDS011;46221;51.178;5.900;2023-08-20T09:44:36;10.13;;;6.88;;
50337;SDS011;46221;51.178;5.900;2023-08-20T09:47:03;14.07;;;6.20;;
50337;SDS011;46221;51.178;5.900;2023-08-20T09:49:32;10.73;;;6.78;;
50337;SDS011;46221;51.178;5.900;2023-08-20T09:51:59;9.73;;;5.50;;
50337;SDS011;46221;51.178;5.900;2023-08-20T09:57:02;12.80;;;6.35;;
50337;SDS011;46221;51.178;5.900;2023-08-20T09:59:33;9.50;;;5.65;;
50337;SDS011;46221;51.178;5.900;2023-08-20T10:02:02;8.50;;;5.18;;
50337;SDS011;46221;51.178;5.900;2023-08-20T10:04:28;8.73;;;5.63;;
50337;SDS011;46221;51.178;5.900;2023-08-20T10:06:56;8.70;;;5.57;;
50337;SDS011;46221;51.178;5.900;2023-08-20T10:09:24;8.43;;;5.50;;
50337;SDS011;46221;51.178;5.900;2023-08-20T10:11:51;11.25;;;5.60;;
50337;SDS011;46221;51.178;5.900;2023-08-20T10:14:18;11.35;;;5.65;;
50337;SDS011;46221;51.178;5.900;2023-08-20T10:16:45;9.73;;;4.90;;
50337;SDS011;46221;51.178;5.900;2023-08-20T10:19:11;9.80;;;5.25;;
50337;SDS011;46221;51.178;5.900;2023-08-20T10:21:44;8.80;;;5.30;;
50337;SDS011;46221;51.178;5.900;2023-08-20T10:24:16;8.02;;;4.97;;
50337;SDS011;46221;51.178;5.900;2023-08-20T10:26:42;7.75;;;5.40;;
50337;SDS011;46221;51.178;5.900;2023-08-20T10:31:59;10.23;;;5.45;;
50337;SDS011;46221;51.178;5.900;2023-08-20T10:34:32;7.18;;;4.80;;
50337;SDS011;46221;51.178;5.900;2023-08-20T10:37:01;7.22;;;4.43;;
50337;SDS011;46221;51.178;5.900;2023-08-20T10:39:29;8.75;;;4.60;;
50337;SDS011;46221;51.178;5.900;2023-08-20T10:44:59;6.97;;;4.45;;
50337;SDS011;46221;51.178;5.900;2023-08-20T10:50:22;5.97;;;4.40;;
50337;SDS011;46221;51.178;5.900;2023-08-20T10:52:50;7.57;;;4.07;;
50337;SDS011;46221;51.178;5.900;2023-08-20T10:55:21;6.47;;;4.00;;
50337;SDS011;46221;51.178;5.900;2023-08-20T10:57:48;7.03;;;4.05;;
50337;SDS011;46221;51.178;5.900;2023-08-20T11:00:20;7.28;;;3.95;;
50337;SDS011;46221;51.178;5.900;2023-08-20T11:02:47;6.80;;;3.88;;
50337;SDS011;46221;51.178;5.900;2023-08-20T11:05:17;5.35;;;3.80;;
50337;SDS011;46221;51.178;5.900;2023-08-20T11:07:47;5.75;;;4.03;;
50337;SDS011;46221;51.178;5.900;2023-08-20T11:10:17;6.05;;;3.85;;
50337;SDS011;46221;51.178;5.900;2023-08-20T11:12:45;7.22;;;3.47;;
50337;SDS011;46221;51.178;5.900;2023-08-20T11:15:12;5.63;;;3.60;;
50337;SDS011;46221;51.178;5.900;2023-08-20T11:17:42;6.30;;;3.97;;
50337;SDS011;46221;51.178;5.900;2023-08-20T11:20:09;6.47;;;3.67;;
50337;SDS011;46221;51.178;5.900;2023-08-20T11:22:38;5.97;;;3.45;;
50337;SDS011;46221;51.178;5.900;2023-08-20T11:25:04;7.50;;;3.33;;
50337;SDS011;46221;51.178;5.900;2023-08-20T11:27:31;5.60;;;3.67;;
50337;SDS011;46221;51.178;5.900;2023-08-20T11:29:57;5.43;;;3.65;;
50337;SDS011;46221;51.178;5.900;2023-08-20T11:32:24;5.53;;;3.50;;
50337;SDS011;46221;51.178;5.900;2023-08-20T11:34:50;6.30;;;3.15;;
50337;SDS011;46221;51.178;5.900;2023-08-20T11:37:23;5.28;;;3.30;;
50337;SDS011;46221;51.178;5.900;2023-08-20T11:39:49;5.47;;;3.47;;
50337;SDS011;46221;51.178;5.900;2023-08-20T11:42:16;5.22;;;3.30;;
50337;SDS011;46221;51.178;5.900;2023-08-20T11:44:42;6.57;;;3.47;;
50337;SDS011;46221;51.178;5.900;2023-08-20T11:47:14;10.68;;;3.25;;
50337;SDS011;46221;51.178;5.900;2023-08-20T11:49:40;5.57;;;3.47;;
50337;SDS011;46221;51.178;5.900;2023-08-20T11:52:07;5.13;;;3.25;;
50337;SDS011;46221;51.178;5.900;2023-08-20T11:54:33;4.90;;;2.78;;
50337;SDS011;46221;51.178;5.900;2023-08-20T11:57:03;6.47;;;3.28;;
50337;SDS011;46221;51.178;5.900;2023-08-20T11:59:30;5.80;;;2.83;;
50337;SDS011;46221;51.178;5.900;2023-08-20T12:01:57;4.68;;;2.97;;
50337;SDS011;46221;51.178;5.900;2023-08-20T12:04:23;5.97;;;2.88;;
50337;SDS011;46221;51.178;5.900;2023-08-20T12:07:13;6.03;;;3.13;;
50337;SDS011;46221;51.178;5.900;2023-08-20T12:09:40;5.18;;;2.80;;
50337;SDS011;46221;51.178;5.900;2023-08-20T12:12:07;6.28;;;2.92;;
50337;SDS011;46221;51.178;5.900;2023-08-20T12:14:34;5.07;;;3.38;;
50337;SDS011;46221;51.178;5.900;2023-08-20T12:17:01;5.43;;;2.72;;
50337;SDS011;46221;51.178;5.900;2023-08-20T12:19:29;5.28;;;2.75;;
50337;SDS011;46221;51.178;5.900;2023-08-20T12:21:55;4.85;;;2.88;;
50337;SDS011;46221;51.178;5.900;2023-08-20T12:24:22;5.35;;;2.80;;
50337;SDS011;46221;51.178;5.900;2023-08-20T12:26:49;5.22;;;2.90;;
50337;SDS011;46221;51.178;5.900;2023-08-20T12:29:15;6.05;;;2.58;;
50337;SDS011;46221;51.178;5.900;2023-08-20T12:31:42;4.65;;;2.60;;
50337;SDS011;46221;51.178;5.900;2023-08-20T12:34:08;5.85;;;2.92;;
50337;SDS011;46221;51.178;5.900;2023-08-20T12:36:35;4.47;;;2.67;;
50337;SDS011;46221;51.178;5.900;2023-08-20T12:39:02;6.45;;;2.90;;
50337;SDS011;46221;51.178;5.900;2023-08-20T12:41:30;5.53;;;2.80;;
50337;SDS011;46221;51.178;5.900;2023-08-20T12:43:57;5.15;;;2.50;;
50337;SDS011;46221;51.178;5.900;2023-08-20T12:46:24;4.10;;;2.75;;
50337;SDS011;46221;51.178;5.900;2023-08-20T12:48:50;5.15;;;2.90;;
50337;SDS011;46221;51.178;5.900;2023-08-20T12:51:17;3.55;;;2.50;;
50337;SDS011;46221;51.178;5.900;2023-08-20T12:53:44;6.32;;;2.83;;
50337;SDS011;46221;51.178;5.900;2023-08-20T12:56:10;7.85;;;2.90;;
50337;SDS011;46221;51.178;5.900;2023-08-20T12:58:38;5.57;;;2.60;;
50337;SDS011;46221;51.178;5.900;2023-08-20T13:01:04;5.22;;;2.55;;
50337;SDS011;46221;51.178;5.900;2023-08-20T13:03:31;5.45;;;2.80;;
50337;SDS011;46221;51.178;5.900;2023-08-20T13:05:58;4.25;;;2.50;;
50337;SDS011;46221;51.178;5.900;2023-08-20T13:08:27;4.90;;;2.75;;
50337;SDS011;46221;51.178;5.900;2023-08-20T13:10:54;3.45;;;2.22;;
50337;SDS011;46221;51.178;5.900;2023-08-20T13:13:22;4.15;;;2.60;;
50337;SDS011;46221;51.178;5.900;2023-08-20T13:15:52;3.90;;;2.55;;
50337;SDS011;46221;51.178;5.900;2023-08-20T13:18:18;4.47;;;2.40;;
50337;SDS011;46221;51.178;5.900;2023-08-20T13:20:45;4.45;;;2.53;;
50337;SDS011;46221;51.178;5.900;2023-08-20T13:23:11;4.15;;;2.30;;
50337;SDS011;46221;51.178;5.900;2023-08-20T13:25:38;4.68;;;2.45;;
50337;SDS011;46221;51.178;5.900;2023-08-20T13:28:04;4.20;;;2.25;;
50337;SDS011;46221;51.178;5.900;2023-08-20T13:30:31;4.20;;;2.42;;
50337;SDS011;46221;51.178;5.900;2023-08-20T13:32:59;4.60;;;2.08;;
50337;SDS011;46221;51.178;5.900;2023-08-20T13:35:26;3.67;;;2.22;;
50337;SDS011;46221;51.178;5.900;2023-08-20T13:37:52;4.78;;;2.38;;
50337;SDS011;46221;51.178;5.900;2023-08-20T13:40:21;3.85;;;1.92;;
50337;SDS011;46221;51.178;5.900;2023-08-20T13:42:48;3.05;;;1.73;;
50337;SDS011;46221;51.178;5.900;2023-08-20T13:45:14;3.17;;;2.00;;
50337;SDS011;46221;51.178;5.900;2023-08-20T13:47:40;4.15;;;2.17;;
50337;SDS011;46221;51.178;5.900;2023-08-20T13:50:07;3.40;;;1.90;;
50337;SDS011;46221;51.178;5.900;2023-08-20T13:52:33;4.20;;;1.95;;
50337;SDS011;46221;51.178;5.900;2023-08-20T13:55:00;3.20;;;1.92;;
50337;SDS011;46221;51.178;5.900;2023-08-20T13:57:27;3.38;;;1.92;;
50337;SDS011;46221;51.178;5.900;2023-08-20T13:59:53;3.42;;;1.85;;
50337;SDS011;46221;51.178;5.900;2023-08-20T14:02:20;3.25;;;1.90;;
50337;SDS011;46221;51.178;5.900;2023-08-20T14:04:46;3.97;;;1.80;;
50337;SDS011;46221;51.178;5.900;2023-08-20T14:07:13;4.82;;;1.95;;
50337;SDS011;46221;51.178;5.900;2023-08-20T14:09:40;4.15;;;1.92;;
50337;SDS011;46221;51.178;5.900;2023-08-20T14:12:06;3.90;;;2.13;;
50337;SDS011;46221;51.178;5.900;2023-08-20T14:14:33;2.65;;;1.80;;
50337;SDS011;46221;51.178;5.900;2023-08-20T14:16:59;2.83;;;1.60;;
50337;SDS011;46221;51.178;5.900;2023-08-20T14:19:26;3.40;;;1.92;;
50337;SDS011;46221;51.178;5.900;2023-08-20T14:21:52;3.47;;;2.00;;
50337;SDS011;46221;51.178;5.900;2023-08-20T14:24:19;3.28;;;1.70;;
50337;SDS011;46221;51.178;5.900;2023-08-20T14:26:45;3.80;;;1.65;;
50337;SDS011;46221;51.178;5.900;2023-08-20T14:29:11;3.25;;;1.65;;
50337;SDS011;46221;51.178;5.900;2023-08-20T14:31:38;3.05;;;1.80;;
50337;SDS011;46221;51.178;5.900;2023-08-20T14:34:04;4.75;;;1.73;;
50337;SDS011;46221;51.178;5.900;2023-08-20T14:36:31;4.03;;;1.63;;
50337;SDS011;46221;51.178;5.900;2023-08-20T14:38:57;2.67;;;1.65;;
50337;SDS011;46221;51.178;5.900;2023-08-20T14:41:24;3.35;;;1.70;;
50337;SDS011;46221;51.178;5.900;2023-08-20T14:43:50;3.53;;;1.70;;
50337;SDS011;46221;51.178;5.900;2023-08-20T14:46:17;3.63;;;1.88;;
50337;SDS011;46221;51.178;5.900;2023-08-20T14:48:43;3.20;;;1.77;;
50337;SDS011;46221;51.178;5.900;2023-08-20T14:51:10;2.25;;;1.52;;
50337;SDS011;46221;51.178;5.900;2023-08-20T14:53:36;2.80;;;1.63;;
50337;SDS011;46221;51.178;5.900;2023-08-20T14:56:03;2.65;;;1.40;;
50337;SDS011;46221;51.178;5.900;2023-08-20T14:58:29;3.22;;;1.40;;
50337;SDS011;46221;51.178;5.900;2023-08-20T15:00:58;2.88;;;1.40;;
50337;SDS011;46221;51.178;5.900;2023-08-20T15:03:25;2.78;;;1.40;;
50337;SDS011;46221;51.178;5.900;2023-08-20T15:05:51;2.05;;;1.33;;